createdAt,value
2018-12-03T00:01:31.143Z,12.73
2018-12-03T00:04:12.545Z,12.73
2018-12-03T00:06:41.321Z,12.73
2018-12-03T00:09:10.224Z,12.73
2018-12-03T00:11:39.018Z,12.75
2018-12-03T00:14:07.861Z,12.63
2018-12-03T00:16:36.669Z,12.54
2018-12-03T00:19:06.072Z,12.40
2018-12-03T00:21:35.074Z,12.62
2018-12-03T00:24:04.162Z,12.63
2018-12-03T00:26:32.955Z,12.35
2018-12-03T00:29:01.737Z,12.61
2018-12-03T00:31:30.925Z,12.63
2018-12-03T00:33:59.912Z,12.70
2018-12-03T00:36:28.698Z,12.70
2018-12-03T00:38:57.839Z,12.74
2018-12-03T00:41:26.657Z,12.74
2018-12-03T00:43:55.701Z,12.76
2018-12-03T00:46:24.506Z,12.75
2018-12-03T00:48:53.486Z,12.76
2018-12-03T00:51:22.585Z,12.75
2018-12-03T00:53:51.348Z,12.76
2018-12-03T00:56:20.133Z,12.78
2018-12-03T00:58:48.913Z,12.66
2018-12-03T01:01:17.728Z,12.78
2018-12-03T01:03:46.522Z,12.76
2018-12-03T01:06:15.569Z,12.60
2018-12-03T01:08:44.343Z,12.74
2018-12-03T01:11:13.127Z,12.64
2018-12-03T01:13:41.900Z,12.62
2018-12-03T01:16:10.669Z,12.75
2018-12-03T01:18:39.435Z,12.61
2018-12-03T01:21:08.777Z,12.73
2018-12-03T01:23:37.541Z,12.77
2018-12-03T01:26:06.643Z,12.71
2018-12-03T01:28:35.384Z,12.79
2018-12-03T01:31:04.401Z,12.77
2018-12-03T01:33:33.189Z,12.81
2018-12-03T01:36:01.953Z,12.72
2018-12-03T01:38:30.745Z,12.77
2018-12-03T01:40:59.530Z,12.71
2018-12-03T01:43:28.303Z,12.76
2018-12-03T01:45:57.071Z,12.72
2018-12-03T01:48:25.843Z,12.76
2018-12-03T01:50:54.965Z,12.82
2018-12-03T01:53:24.063Z,12.81
2018-12-03T01:55:53.085Z,12.73
2018-12-03T01:58:21.877Z,12.82
2018-12-03T02:00:51.158Z,12.85
2018-12-03T02:03:19.935Z,12.82
2018-12-03T02:05:48.696Z,12.82
2018-12-03T02:08:17.481Z,12.84
2018-12-03T02:10:46.343Z,12.84
2018-12-03T02:13:15.118Z,12.85
2018-12-03T02:15:43.932Z,12.79
2018-12-03T02:18:12.741Z,12.84
2018-12-03T02:20:41.538Z,12.82
2018-12-03T02:23:10.385Z,12.85
2018-12-03T02:25:39.201Z,12.89
2018-12-03T02:28:07.970Z,12.84
2018-12-03T02:30:36.750Z,12.89
2018-12-03T02:33:05.805Z,12.87
2018-12-03T02:35:34.592Z,12.83
2018-12-03T02:38:03.390Z,12.87
2018-12-03T02:40:32.169Z,12.88
2018-12-03T02:43:01.159Z,12.75
2018-12-03T02:45:30.127Z,12.87
2018-12-03T02:47:58.902Z,12.89
2018-12-03T02:50:27.704Z,12.91
2018-12-03T02:52:56.505Z,12.74
2018-12-03T02:55:25.483Z,12.84
2018-12-03T02:57:54.279Z,12.79
2018-12-03T03:00:23.073Z,12.83
2018-12-03T03:02:51.885Z,12.83
2018-12-03T03:05:20.670Z,12.86
2018-12-03T03:07:49.457Z,12.88
2018-12-03T03:10:18.595Z,12.82
2018-12-03T03:12:47.590Z,12.85
2018-12-03T03:15:16.712Z,12.86
2018-12-03T03:17:45.499Z,12.82
2018-12-03T03:20:14.326Z,12.74
2018-12-03T03:22:43.297Z,12.86
2018-12-03T03:25:12.161Z,12.72
2018-12-03T03:27:41.137Z,12.74
2018-12-03T03:30:13.985Z,12.76
2018-12-03T03:32:43.152Z,12.65
2018-12-03T03:35:13.093Z,12.78
2018-12-03T03:37:42.045Z,12.79
2018-12-03T03:40:12.301Z,12.74
2018-12-03T03:42:41.549Z,12.63
2018-12-03T03:45:13.109Z,12.56
2018-12-03T03:47:42.439Z,12.55
2018-12-03T03:50:11.226Z,12.79
2018-12-03T03:52:40.015Z,12.34
2018-12-03T03:55:09.774Z,12.58
2018-12-03T03:57:38.573Z,12.58
2018-12-03T04:00:11.294Z,12.67
2018-12-03T04:02:40.410Z,12.64
2018-12-03T04:05:11.910Z,12.71
2018-12-03T04:07:41.942Z,12.61
2018-12-03T04:10:11.621Z,12.68
2018-12-03T04:12:41.315Z,12.68
2018-12-03T04:15:12.040Z,12.76
2018-12-03T04:17:40.901Z,12.45
2018-12-03T04:20:17.467Z,12.64
2018-12-03T04:22:47.766Z,12.57
2018-12-03T04:25:16.751Z,12.67
2018-12-03T04:27:45.710Z,12.70
2018-12-03T04:30:17.015Z,12.57
2018-12-03T04:32:45.883Z,12.75
2018-12-03T04:35:14.830Z,12.80
2018-12-03T04:37:44.073Z,12.83
2018-12-03T04:40:13.942Z,12.77
2018-12-03T04:42:43.059Z,12.76
2018-12-03T04:45:14.089Z,12.77
2018-12-03T04:47:43.238Z,12.75
2018-12-03T04:50:13.947Z,12.59
2018-12-03T04:52:42.753Z,12.74
2018-12-03T04:55:12.516Z,12.88
2018-12-03T04:57:41.935Z,12.72
2018-12-03T05:00:17.007Z,12.64
2018-12-03T05:02:47.155Z,12.59
2018-12-03T05:05:15.962Z,12.76
2018-12-03T05:07:45.093Z,12.81
2018-12-03T05:10:16.682Z,12.89
2018-12-03T05:12:46.527Z,12.93
2018-12-03T05:15:15.730Z,12.92
2018-12-03T05:17:44.917Z,12.93
2018-12-03T05:20:17.891Z,12.94
2018-12-03T05:22:46.687Z,13.03
2018-12-03T05:25:19.149Z,13.02
2018-12-03T05:27:44.309Z,13.08
2018-12-03T05:30:15.603Z,13.10
2018-12-03T05:32:44.800Z,13.09
2018-12-03T05:35:15.002Z,13.09
2018-12-03T05:37:43.965Z,13.09
2018-12-03T05:40:16.685Z,13.07
2018-12-03T05:42:45.846Z,13.09
2018-12-03T05:45:14.595Z,13.06
2018-12-03T05:47:43.377Z,13.07
2018-12-03T05:50:16.068Z,13.05
2018-12-03T05:52:45.906Z,13.06
2018-12-03T05:55:15.118Z,13.06
2018-12-03T05:57:44.325Z,13.05
2018-12-03T06:00:16.981Z,13.07
2018-12-03T06:02:45.931Z,13.08
2018-12-03T06:05:15.616Z,13.10
2018-12-03T06:07:44.829Z,13.09
2018-12-03T06:10:14.873Z,13.00
2018-12-03T06:12:43.861Z,13.07
2018-12-03T06:15:14.458Z,13.06
2018-12-03T06:17:43.244Z,13.10
2018-12-03T06:20:16.098Z,13.09
2018-12-03T06:22:45.168Z,13.12
2018-12-03T06:25:16.518Z,13.13
2018-12-03T06:27:45.492Z,13.14
2018-12-03T06:30:17.770Z,13.12
2018-12-03T06:32:46.917Z,13.13
2018-12-03T06:35:16.712Z,13.14
2018-12-03T06:37:45.499Z,13.11
2018-12-03T06:40:17.888Z,13.12
2018-12-03T06:42:46.897Z,13.11
2018-12-03T06:45:23.111Z,13.12
2018-12-03T06:47:53.878Z,13.09
2018-12-03T06:50:22.758Z,13.10
2018-12-03T06:52:51.733Z,13.11
2018-12-03T06:55:20.618Z,12.98
2018-12-03T06:57:49.941Z,13.10
2018-12-03T07:00:20.237Z,13.10
2018-12-03T07:02:49.041Z,13.08
2018-12-03T07:05:19.862Z,13.10
2018-12-03T07:07:50.116Z,13.02
2018-12-03T07:10:19.913Z,12.97
2018-12-03T07:12:50.366Z,12.97
2018-12-03T07:15:20.534Z,12.95
2018-12-03T07:17:50.418Z,13.04
2018-12-03T07:20:19.307Z,13.09
2018-12-03T07:22:48.079Z,13.10
2018-12-03T07:25:17.180Z,13.06
2018-12-03T07:27:45.967Z,13.12
2018-12-03T07:30:16.418Z,13.06
2018-12-03T07:32:47.218Z,12.95
2018-12-03T07:35:15.201Z,13.03
2018-12-03T07:37:44.445Z,13.09
2018-12-03T07:40:13.666Z,12.86
2018-12-03T07:42:43.009Z,12.81
2018-12-03T07:45:17.929Z,13.03
2018-12-03T07:47:46.717Z,13.00
2018-12-03T07:50:17.423Z,13.03
2018-12-03T07:52:49.587Z,13.08
2018-12-03T07:55:19.689Z,13.10
2018-12-03T07:57:54.845Z,13.11
2018-12-03T08:00:26.466Z,13.15
2018-12-03T08:02:55.585Z,13.10
2018-12-03T08:05:24.363Z,13.12
2018-12-03T08:07:53.693Z,13.01
2018-12-03T08:10:22.741Z,13.04
2018-12-03T08:12:51.569Z,13.17
2018-12-03T08:15:20.547Z,13.21
2018-12-03T08:17:51.585Z,13.23
2018-12-03T08:20:24.162Z,13.11
2018-12-03T08:22:55.425Z,13.23
2018-12-03T08:25:24.865Z,13.25
2018-12-03T08:27:53.669Z,13.30
2018-12-03T08:30:22.470Z,13.28
2018-12-03T08:32:51.278Z,13.26
2018-12-03T08:35:20.114Z,13.20
2018-12-03T08:37:48.934Z,13.28
2018-12-03T08:40:19.139Z,13.32
2018-12-03T08:42:50.154Z,13.18
2018-12-03T08:45:20.183Z,13.24
2018-12-03T08:47:49.779Z,13.23
2018-12-03T08:50:19.722Z,13.19
2018-12-03T08:52:48.525Z,13.09
2018-12-03T08:55:17.558Z,13.17
2018-12-03T08:57:46.695Z,13.23
2018-12-03T09:00:18.652Z,13.26
2018-12-03T09:02:58.019Z,13.20
2018-12-03T09:05:28.602Z,13.28
2018-12-03T09:07:57.411Z,13.37
2018-12-03T09:10:26.428Z,13.26
2018-12-03T09:12:55.299Z,13.30
2018-12-03T09:15:24.118Z,13.29
2018-12-03T09:17:52.926Z,13.30
2018-12-03T09:20:22.217Z,13.12
2018-12-03T09:22:52.103Z,13.24
2018-12-03T09:25:22.874Z,13.27
2018-12-03T09:27:51.882Z,13.31
2018-12-03T09:30:20.894Z,13.33
2018-12-03T09:32:49.839Z,13.27
2018-12-03T09:35:19.132Z,13.35
2018-12-03T09:37:48.110Z,13.28
2018-12-03T09:40:18.918Z,13.31
2018-12-03T09:42:47.716Z,13.29
2018-12-03T09:45:17.429Z,13.44
2018-12-03T09:47:46.811Z,13.46
2018-12-03T09:50:31.248Z,13.48
2018-12-03T09:53:00.270Z,13.49
2018-12-03T09:55:30.278Z,13.41
2018-12-03T09:58:02.646Z,13.49
2018-12-03T10:00:31.769Z,13.47
2018-12-03T10:03:03.605Z,13.49
2018-12-03T10:05:36.939Z,13.47
2018-12-03T10:08:05.813Z,13.45
2018-12-03T10:10:34.706Z,13.53
2018-12-03T10:13:08.950Z,13.40
2018-12-03T10:15:37.780Z,13.48
2018-12-03T10:18:06.782Z,13.52
2018-12-03T10:20:42.074Z,13.54
2018-12-03T10:23:06.410Z,13.55
2018-12-03T10:25:35.219Z,13.54
2018-12-03T10:28:07.816Z,13.59
2018-12-03T10:30:36.974Z,13.59
2018-12-03T10:33:06.544Z,13.65
2018-12-03T10:35:37.014Z,13.66
2018-12-03T10:38:12.041Z,13.66
2018-12-03T10:40:43.110Z,13.68
2018-12-03T10:43:12.666Z,13.69
2018-12-03T10:45:41.818Z,13.74
2018-12-03T10:48:10.937Z,13.79
2018-12-03T10:50:39.739Z,13.84
2018-12-03T10:53:08.592Z,13.85
2018-12-03T10:55:42.245Z,13.84
2018-12-03T10:58:13.334Z,13.86
2018-12-03T11:00:47.862Z,13.89
2018-12-03T11:03:22.012Z,13.91
2018-12-03T11:05:56.227Z,14.00
2018-12-03T11:08:25.049Z,14.04
2018-12-03T11:10:55.097Z,14.10
2018-12-03T11:13:24.265Z,14.14
2018-12-03T11:15:53.077Z,14.21
2018-12-03T11:18:22.350Z,14.20
2018-12-03T11:20:51.245Z,14.29
2018-12-03T11:23:23.722Z,14.23
2018-12-03T11:25:52.759Z,14.27
2018-12-03T11:28:21.585Z,14.24
2018-12-03T11:30:53.201Z,14.25
2018-12-03T11:33:23.380Z,14.22
2018-12-03T11:35:54.262Z,14.24
2018-12-03T11:38:32.670Z,14.20
2018-12-03T11:41:01.985Z,14.18
2018-12-03T11:43:31.260Z,14.17
2018-12-03T11:46:00.305Z,14.15
2018-12-03T11:48:29.058Z,14.14
2018-12-03T11:50:58.240Z,14.14
2018-12-03T11:53:27.029Z,14.08
2018-12-03T11:55:56.234Z,14.12
2018-12-03T11:58:25.033Z,14.13
2018-12-03T12:00:53.857Z,14.14
2018-12-03T12:03:22.666Z,14.06
2018-12-03T12:05:51.464Z,14.11
2018-12-03T12:08:20.403Z,14.05
2018-12-03T12:10:49.183Z,14.06
2018-12-03T12:13:17.956Z,14.04
2018-12-03T12:15:46.954Z,14.06
2018-12-03T12:18:15.815Z,14.03
2018-12-03T12:20:44.633Z,14.02
2018-12-03T12:23:13.512Z,14.05
2018-12-03T12:25:42.313Z,13.96
2018-12-03T12:28:11.151Z,14.06
2018-12-03T12:30:39.992Z,14.00
2018-12-03T12:33:08.983Z,13.95
2018-12-03T12:35:37.783Z,14.06
2018-12-03T12:38:06.622Z,13.97
2018-12-03T12:40:36.057Z,14.03
2018-12-03T12:43:05.675Z,14.04
2018-12-03T12:45:38.833Z,14.05
2018-12-03T12:48:07.988Z,14.06
2018-12-03T12:50:37.134Z,14.01
2018-12-03T12:53:06.537Z,13.95
2018-12-03T12:55:35.463Z,14.01
2018-12-03T12:58:04.446Z,14.08
2018-12-03T13:00:33.248Z,13.98
2018-12-03T13:03:02.031Z,13.97
2018-12-03T13:05:31.014Z,14.02
2018-12-03T13:07:59.818Z,14.02
2018-12-03T13:10:28.691Z,14.06
2018-12-03T13:12:57.468Z,14.09
2018-12-03T13:15:26.578Z,14.00
2018-12-03T13:17:55.713Z,14.07
2018-12-03T13:20:24.523Z,13.97
2018-12-03T13:22:53.540Z,14.03
2018-12-03T13:25:22.328Z,14.04
2018-12-03T13:27:52.299Z,14.10
2018-12-03T13:30:21.082Z,14.08
2018-12-03T13:32:50.077Z,14.10
2018-12-03T13:35:20.804Z,14.06
2018-12-03T13:37:49.944Z,14.08
2018-12-03T13:40:19.081Z,14.10
2018-12-03T13:42:48.062Z,14.11
2018-12-03T13:45:18.905Z,14.09
2018-12-03T13:47:47.895Z,14.07
2018-12-03T13:50:17.561Z,13.99
2018-12-03T13:52:46.402Z,14.10
2018-12-03T13:55:17.132Z,14.10
2018-12-03T13:57:45.919Z,14.04
2018-12-03T14:00:19.112Z,13.92
2018-12-03T14:02:52.639Z,14.03
2018-12-03T14:05:22.012Z,14.05
2018-12-03T14:08:15.143Z,14.13
2018-12-03T14:10:58.378Z,14.23
2018-12-03T14:13:42.508Z,14.27
2018-12-03T14:16:24.277Z,14.31
2018-12-03T14:18:56.054Z,14.31
2018-12-03T14:21:29.069Z,14.36
2018-12-03T14:23:59.379Z,14.37
2018-12-03T14:26:28.840Z,14.36
2018-12-03T14:28:57.602Z,14.34
2018-12-03T14:31:26.938Z,14.40
2018-12-03T14:33:55.811Z,14.41
2018-12-03T14:36:24.815Z,14.42
2018-12-03T14:38:53.693Z,14.40
2018-12-03T14:41:22.468Z,14.40
2018-12-03T14:43:51.252Z,14.39
2018-12-03T14:46:20.074Z,14.40
2018-12-03T14:48:49.064Z,14.41
2018-12-03T14:51:17.999Z,14.40
2018-12-03T14:53:46.795Z,14.40
2018-12-03T14:56:15.609Z,14.39
2018-12-03T14:58:44.425Z,14.39
2018-12-03T15:01:13.290Z,14.37
2018-12-03T15:03:42.420Z,14.38
2018-12-03T15:06:11.473Z,14.38
2018-12-03T15:08:40.305Z,14.35
2018-12-03T15:11:09.610Z,14.35
2018-12-03T15:13:38.426Z,14.35
2018-12-03T15:16:07.379Z,14.34
2018-12-03T15:18:36.346Z,14.32
2018-12-03T15:21:05.193Z,14.31
2018-12-03T15:23:34.206Z,14.32
2018-12-03T15:26:03.014Z,14.28
2018-12-03T15:28:31.858Z,14.29
2018-12-03T15:31:00.622Z,14.27
2018-12-03T15:33:29.462Z,14.27
2018-12-03T15:35:58.276Z,14.30
2018-12-03T15:38:27.202Z,14.31
2018-12-03T15:40:56.589Z,14.30
2018-12-03T15:43:25.816Z,14.28
2018-12-03T15:45:55.030Z,14.26
2018-12-03T15:48:24.159Z,14.26
2018-12-03T15:50:52.954Z,14.24
2018-12-03T15:53:21.742Z,14.21
2018-12-03T15:55:51.081Z,14.21
2018-12-03T15:58:19.977Z,14.20
2018-12-03T16:00:48.752Z,14.19
2018-12-03T16:03:17.551Z,14.20
2018-12-03T16:05:46.542Z,14.20
2018-12-03T16:08:15.326Z,14.19
2018-12-03T16:10:44.516Z,14.20
2018-12-03T16:13:13.627Z,14.16
2018-12-03T16:15:42.607Z,14.13
2018-12-03T16:18:11.585Z,14.15
2018-12-03T16:20:41.181Z,14.13
2018-12-03T16:23:10.025Z,14.06
2018-12-03T16:25:38.842Z,14.09
2018-12-03T16:28:07.654Z,14.13
2018-12-03T16:30:36.441Z,14.13
2018-12-03T16:33:05.234Z,14.10
2018-12-03T16:35:35.273Z,14.12
2018-12-03T16:38:04.482Z,14.10
2018-12-03T16:40:33.314Z,14.07
2018-12-03T16:43:02.160Z,14.06
2018-12-03T16:45:30.969Z,14.05
2018-12-03T16:47:59.779Z,14.06
2018-12-03T16:50:28.551Z,14.00
2018-12-03T16:52:57.385Z,13.98
2018-12-03T16:55:26.354Z,13.97
2018-12-03T16:57:55.175Z,13.98
2018-12-03T17:00:24.157Z,14.01
2018-12-03T17:02:53.005Z,13.96
2018-12-03T17:05:21.821Z,13.95
2018-12-03T17:07:50.630Z,13.95
2018-12-03T17:10:19.822Z,13.98
2018-12-03T17:12:50.208Z,13.88
2018-12-03T17:15:18.954Z,13.96
2018-12-03T17:17:47.761Z,13.96
2018-12-03T17:20:24.825Z,13.91
2018-12-03T17:23:35.393Z,13.92
2018-12-03T17:26:04.177Z,13.91
2018-12-03T17:28:33.027Z,13.92
2018-12-03T17:31:01.817Z,13.92
2018-12-03T17:33:30.942Z,13.93
2018-12-03T17:35:59.746Z,13.96
2018-12-03T17:38:28.535Z,13.95
2018-12-03T17:40:57.404Z,13.94
2018-12-03T17:43:26.193Z,13.94
2018-12-03T17:45:54.982Z,13.91
2018-12-03T17:48:23.775Z,13.84
2018-12-03T17:50:52.634Z,13.89
2018-12-03T17:53:21.413Z,13.89
2018-12-03T17:55:50.358Z,13.89
2018-12-03T17:58:19.257Z,13.86
2018-12-03T18:00:48.404Z,13.87
2018-12-03T18:03:17.235Z,13.88
2018-12-03T18:05:46.102Z,13.88
2018-12-03T18:08:14.989Z,13.88
2018-12-03T18:10:43.970Z,13.85
2018-12-03T18:13:13.311Z,13.87
2018-12-03T18:15:42.318Z,13.87
2018-12-03T18:18:11.181Z,13.86
2018-12-03T18:20:39.992Z,13.86
2018-12-03T18:23:08.773Z,13.85
2018-12-03T18:25:37.681Z,13.85
2018-12-03T18:28:06.485Z,13.81
2018-12-03T18:30:35.489Z,13.83
2018-12-03T18:33:04.325Z,13.84
2018-12-03T18:35:33.116Z,13.84
2018-12-03T18:38:02.062Z,13.85
2018-12-03T18:40:30.847Z,13.85
2018-12-03T18:42:59.922Z,13.83
2018-12-03T18:45:28.899Z,13.83
2018-12-03T18:47:57.891Z,13.81
2018-12-03T18:50:31.106Z,13.80
2018-12-03T18:52:59.929Z,13.82
2018-12-03T18:55:28.738Z,13.83
2018-12-03T18:58:01.075Z,13.81
2018-12-03T19:00:30.169Z,13.84
2018-12-03T19:02:59.298Z,13.83
2018-12-03T19:05:28.430Z,13.83
2018-12-03T19:07:57.426Z,13.81
2018-12-03T19:10:26.482Z,13.82
2018-12-03T19:12:55.528Z,13.82
2018-12-03T19:15:24.631Z,13.83
2018-12-03T19:17:54.042Z,13.85
2018-12-03T19:20:23.304Z,13.85
2018-12-03T19:22:52.505Z,13.80
2018-12-03T19:25:21.666Z,13.57
2018-12-03T19:27:50.771Z,13.72
2018-12-03T19:30:19.917Z,13.66
2018-12-03T19:32:49.142Z,13.41
2018-12-03T19:35:18.213Z,13.51
2018-12-03T19:37:47.301Z,13.71
2018-12-03T19:40:16.427Z,13.76
2018-12-03T19:42:45.576Z,13.79
2018-12-03T19:45:14.570Z,13.80
2018-12-03T19:47:43.375Z,13.81
2018-12-03T19:50:12.249Z,13.77
2018-12-03T19:52:41.952Z,13.79
2018-12-03T19:55:12.307Z,13.81
2018-12-03T19:57:41.345Z,13.84
2018-12-03T20:00:12.419Z,13.85
2018-12-03T20:02:41.617Z,13.84
2018-12-03T20:05:15.730Z,13.85
2018-12-03T20:07:44.554Z,13.85
2018-12-03T20:10:13.443Z,13.86
2018-12-03T20:12:42.270Z,13.87
2018-12-03T20:15:11.657Z,13.78
2018-12-03T20:17:41.920Z,13.85
2018-12-03T20:20:21.262Z,13.86
2018-12-03T20:22:56.322Z,13.84
2018-12-03T20:25:28.985Z,13.84
2018-12-03T20:28:07.349Z,13.86
2018-12-03T20:30:46.105Z,13.85
2018-12-03T20:33:19.102Z,13.68
2018-12-03T20:36:12.666Z,13.71
2018-12-03T20:39:07.614Z,13.70
2018-12-03T20:41:40.045Z,13.51
2018-12-03T20:44:25.552Z,13.69
2018-12-03T20:47:34.905Z,13.53
2018-12-03T20:50:20.139Z,13.66
2018-12-03T20:52:49.834Z,13.60
2018-12-03T20:55:23.277Z,13.63
2018-12-03T20:57:52.649Z,13.46
2018-12-03T21:00:21.869Z,13.62
2018-12-03T21:02:53.947Z,13.66
2018-12-03T21:05:22.769Z,13.54
2018-12-03T21:07:51.558Z,13.48
2018-12-03T21:10:20.346Z,13.71
2018-12-03T21:12:49.168Z,13.48
2018-12-03T21:15:18.066Z,13.35
2018-12-03T21:17:47.259Z,13.50
2018-12-03T21:20:19.481Z,13.49
2018-12-03T21:22:48.282Z,13.25
2018-12-03T21:25:17.084Z,13.41
2018-12-03T21:27:45.893Z,13.52
2018-12-03T21:30:14.891Z,13.45
2018-12-03T21:32:43.676Z,13.63
2018-12-03T21:35:12.561Z,13.37
2018-12-03T21:37:41.538Z,13.33
2018-12-03T21:40:10.742Z,13.30
2018-12-03T21:42:39.755Z,13.10
2018-12-03T21:45:08.561Z,13.21
2018-12-03T21:47:37.330Z,13.21
2018-12-03T21:50:07.230Z,13.63
2018-12-03T21:52:35.472Z,13.73
2018-12-03T21:55:04.658Z,13.79
2018-12-03T21:57:33.461Z,13.83
2018-12-03T22:00:02.254Z,13.83
2018-12-03T22:02:31.217Z,13.84
2018-12-03T22:05:00.033Z,13.88
2018-12-03T22:07:29.220Z,13.87
2018-12-03T22:09:58.135Z,13.87
2018-12-03T22:12:27.159Z,13.85
2018-12-03T22:14:56.336Z,13.85
2018-12-03T22:17:25.114Z,13.87
2018-12-03T22:19:54.062Z,13.86
2018-12-03T22:22:23.202Z,13.85
2018-12-03T22:24:52.042Z,13.88
2018-12-03T22:27:20.747Z,13.84
2018-12-03T22:29:49.519Z,13.84
2018-12-03T22:32:18.506Z,13.81
2018-12-03T22:34:47.285Z,13.81
2018-12-03T22:37:16.073Z,13.77
2018-12-03T22:39:46.490Z,13.78
2018-12-03T22:42:13.678Z,13.78
2018-12-03T22:44:42.671Z,13.77
2018-12-03T22:47:11.625Z,13.77
2018-12-03T22:49:40.426Z,13.77
2018-12-03T22:52:09.213Z,13.75
2018-12-03T22:54:38.006Z,13.71
2018-12-03T22:57:06.968Z,13.60
2018-12-03T22:59:35.751Z,13.42
2018-12-03T23:02:07.506Z,13.63
2018-12-03T23:04:40.323Z,13.66
2018-12-03T23:07:09.100Z,13.67
2018-12-03T23:09:37.901Z,13.66
2018-12-03T23:12:07.017Z,13.59
2018-12-03T23:14:35.970Z,13.59
2018-12-03T23:17:05.098Z,13.47
2018-12-03T23:19:33.883Z,13.47
2018-12-03T23:22:02.884Z,13.42
2018-12-03T23:24:31.750Z,13.43
2018-12-03T23:27:01.030Z,13.46
2018-12-03T23:29:30.306Z,13.44
2018-12-03T23:31:59.253Z,13.45
2018-12-03T23:34:28.184Z,13.45
2018-12-03T23:36:57.137Z,13.46
2018-12-03T23:39:25.923Z,13.46
2018-12-03T23:41:55.021Z,13.47
2018-12-03T23:44:23.810Z,13.47
2018-12-03T23:46:52.769Z,13.44
2018-12-03T23:49:21.588Z,13.45
2018-12-03T23:51:50.362Z,13.40
2018-12-03T23:54:19.171Z,13.38
2018-12-03T23:56:47.962Z,13.42
2018-12-03T23:59:16.734Z,13.41
